sensor_id;sensor_type;location;lat;lon;timestamp;temperature;humidity
48579;DHT22;34357;51.948;6.132;2023-05-16T00:02:16;9.70;87.20
48579;DHT22;34357;51.948;6.132;2023-05-16T00:04:42;9.70;87.50
48579;DHT22;34357;51.948;6.132;2023-05-16T00:07:08;9.80;87.30
48579;DHT22;34357;51.948;6.132;2023-05-16T00:09:34;9.70;87.10
48579;DHT22;34357;51.948;6.132;2023-05-16T00:11:59;9.60;86.80
48579;DHT22;34357;51.948;6.132;2023-05-16T00:14:25;9.60;86.80
48579;DHT22;34357;51.948;6.132;2023-05-16T00:16:55;9.60;86.80
48579;DHT22;34357;51.948;6.132;2023-05-16T00:19:23;9.50;86.70
48579;DHT22;34357;51.948;6.132;2023-05-16T00:21:48;9.50;86.70
48579;DHT22;34357;51.948;6.132;2023-05-16T00:24:14;9.50;86.70
48579;DHT22;34357;51.948;6.132;2023-05-16T00:26:40;9.50;87.10
48579;DHT22;34357;51.948;6.132;2023-05-16T00:29:06;9.50;86.30
48579;DHT22;34357;51.948;6.132;2023-05-16T00:31:32;9.40;86.00
48579;DHT22;34357;51.948;6.132;2023-05-16T00:33:57;9.40;86.00
48579;DHT22;34357;51.948;6.132;2023-05-16T00:36:23;9.40;86.00
48579;DHT22;34357;51.948;6.132;2023-05-16T00:38:49;9.40;85.80
48579;DHT22;34357;51.948;6.132;2023-05-16T00:41:16;9.40;85.70
48579;DHT22;34357;51.948;6.132;2023-05-16T00:43:42;9.40;85.60
48579;DHT22;34357;51.948;6.132;2023-05-16T00:46:07;9.30;85.70
48579;DHT22;34357;51.948;6.132;2023-05-16T00:48:34;9.30;86.10
48579;DHT22;34357;51.948;6.132;2023-05-16T00:51:00;9.30;86.10
48579;DHT22;34357;51.948;6.132;2023-05-16T00:53:26;9.30;85.70
48579;DHT22;34357;51.948;6.132;2023-05-16T00:55:52;9.30;85.60
48579;DHT22;34357;51.948;6.132;2023-05-16T00:58:18;9.30;85.70
48579;DHT22;34357;51.948;6.132;2023-05-16T01:00:46;9.30;85.90
48579;DHT22;34357;51.948;6.132;2023-05-16T01:03:12;9.20;86.00
48579;DHT22;34357;51.948;6.132;2023-05-16T01:05:38;9.20;86.00
48579;DHT22;34357;51.948;6.132;2023-05-16T01:08:04;9.00;86.00
48579;DHT22;34357;51.948;6.132;2023-05-16T01:10:58;9.10;86.10
48579;DHT22;34357;51.948;6.132;2023-05-16T01:13:33;9.00;86.30
48579;DHT22;34357;51.948;6.132;2023-05-16T01:16:21;8.90;86.20
48579;DHT22;34357;51.948;6.132;2023-05-16T01:18:59;8.90;86.20
48579;DHT22;34357;51.948;6.132;2023-05-16T01:22:01;8.90;86.40
48579;DHT22;34357;51.948;6.132;2023-05-16T01:27:29;8.80;86.70
48579;DHT22;34357;51.948;6.132;2023-05-16T01:29:56;8.80;86.90
48579;DHT22;34357;51.948;6.132;2023-05-16T01:32:22;8.70;86.70
48579;DHT22;34357;51.948;6.132;2023-05-16T01:34:52;8.70;86.90
48579;DHT22;34357;51.948;6.132;2023-05-16T01:37:30;8.70;87.00
48579;DHT22;34357;51.948;6.132;2023-05-16T01:40:08;8.60;86.80
48579;DHT22;34357;51.948;6.132;2023-05-16T01:42:42;8.60;87.00
48579;DHT22;34357;51.948;6.132;2023-05-16T01:45:09;8.50;87.00
48579;DHT22;34357;51.948;6.132;2023-05-16T01:47:40;8.40;87.10
48579;DHT22;34357;51.948;6.132;2023-05-16T01:50:13;8.40;87.00
48579;DHT22;34357;51.948;6.132;2023-05-16T01:52:58;8.40;87.20
48579;DHT22;34357;51.948;6.132;2023-05-16T01:55:47;8.40;87.20
48579;DHT22;34357;51.948;6.132;2023-05-16T01:58:14;8.40;87.30
48579;DHT22;34357;51.948;6.132;2023-05-16T02:00:41;8.40;87.30
48579;DHT22;34357;51.948;6.132;2023-05-16T02:03:07;8.30;87.10
48579;DHT22;34357;51.948;6.132;2023-05-16T02:05:33;8.40;87.20
48579;DHT22;34357;51.948;6.132;2023-05-16T02:07:59;8.30;87.00
48579;DHT22;34357;51.948;6.132;2023-05-16T02:10:26;8.30;87.20
48579;DHT22;34357;51.948;6.132;2023-05-16T02:12:52;8.30;87.20
48579;DHT22;34357;51.948;6.132;2023-05-16T02:15:18;8.20;87.00
48579;DHT22;34357;51.948;6.132;2023-05-16T02:17:44;8.20;87.00
48579;DHT22;34357;51.948;6.132;2023-05-16T02:20:10;8.20;87.10
48579;DHT22;34357;51.948;6.132;2023-05-16T02:22:37;8.20;87.30
48579;DHT22;34357;51.948;6.132;2023-05-16T02:25:13;8.20;87.10
48579;DHT22;34357;51.948;6.132;2023-05-16T02:27:40;8.20;87.00
48579;DHT22;34357;51.948;6.132;2023-05-16T02:30:08;8.10;86.70
48579;DHT22;34357;51.948;6.132;2023-05-16T02:32:34;8.10;86.60
48579;DHT22;34357;51.948;6.132;2023-05-16T02:35:00;8.10;86.70
48579;DHT22;34357;51.948;6.132;2023-05-16T02:37:26;8.10;86.20
48579;DHT22;34357;51.948;6.132;2023-05-16T02:39:52;8.10;86.10
48579;DHT22;34357;51.948;6.132;2023-05-16T02:42:17;8.10;86.30
48579;DHT22;34357;51.948;6.132;2023-05-16T02:44:43;8.10;86.10
48579;DHT22;34357;51.948;6.132;2023-05-16T02:47:09;8.10;86.20
48579;DHT22;34357;51.948;6.132;2023-05-16T02:49:35;8.00;86.10
48579;DHT22;34357;51.948;6.132;2023-05-16T02:52:01;8.00;86.20
48579;DHT22;34357;51.948;6.132;2023-05-16T02:54:26;8.00;86.20
48579;DHT22;34357;51.948;6.132;2023-05-16T02:56:52;8.00;85.90
48579;DHT22;34357;51.948;6.132;2023-05-16T02:59:18;8.00;86.00
48579;DHT22;34357;51.948;6.132;2023-05-16T03:01:44;7.90;85.90
48579;DHT22;34357;51.948;6.132;2023-05-16T03:04:10;8.00;86.00
48579;DHT22;34357;51.948;6.132;2023-05-16T03:06:36;7.90;86.00
48579;DHT22;34357;51.948;6.132;2023-05-16T03:09:01;7.90;86.20
48579;DHT22;34357;51.948;6.132;2023-05-16T03:11:27;7.90;86.20
48579;DHT22;34357;51.948;6.132;2023-05-16T03:13:53;7.90;86.30
48579;DHT22;34357;51.948;6.132;2023-05-16T03:16:19;7.80;86.40
48579;DHT22;34357;51.948;6.132;2023-05-16T03:18:45;7.80;86.70
48579;DHT22;34357;51.948;6.132;2023-05-16T03:21:10;7.80;86.60
48579;DHT22;34357;51.948;6.132;2023-05-16T03:23:36;7.80;86.60
48579;DHT22;34357;51.948;6.132;2023-05-16T03:26:04;7.60;86.60
48579;DHT22;34357;51.948;6.132;2023-05-16T03:28:29;7.70;86.80
48579;DHT22;34357;51.948;6.132;2023-05-16T03:30:55;7.60;87.00
48579;DHT22;34357;51.948;6.132;2023-05-16T03:33:22;7.50;87.00
48579;DHT22;34357;51.948;6.132;2023-05-16T03:35:49;7.50;87.10
48579;DHT22;34357;51.948;6.132;2023-05-16T03:38:15;7.50;87.30
48579;DHT22;34357;51.948;6.132;2023-05-16T03:40:43;7.40;87.50
48579;DHT22;34357;51.948;6.132;2023-05-16T03:43:09;7.40;87.40
48579;DHT22;34357;51.948;6.132;2023-05-16T03:45:34;7.40;87.60
48579;DHT22;34357;51.948;6.132;2023-05-16T03:48:00;7.40;87.60
48579;DHT22;34357;51.948;6.132;2023-05-16T03:50:26;7.40;87.60
48579;DHT22;34357;51.948;6.132;2023-05-16T03:52:52;7.40;87.60
48579;DHT22;34357;51.948;6.132;2023-05-16T03:55:19;7.30;87.30
48579;DHT22;34357;51.948;6.132;2023-05-16T03:57:45;7.30;87.70
48579;DHT22;34357;51.948;6.132;2023-05-16T04:00:12;7.30;87.80
48579;DHT22;34357;51.948;6.132;2023-05-16T04:02:39;7.30;88.00
48579;DHT22;34357;51.948;6.132;2023-05-16T04:05:07;7.40;88.00
48579;DHT22;34357;51.948;6.132;2023-05-16T04:07:33;7.40;88.10
48579;DHT22;34357;51.948;6.132;2023-05-16T04:09:58;7.40;88.00
48579;DHT22;34357;51.948;6.132;2023-05-16T04:12:24;7.40;87.90
48579;DHT22;34357;51.948;6.132;2023-05-16T04:14:50;7.40;88.10
48579;DHT22;34357;51.948;6.132;2023-05-16T04:17:16;7.50;88.10
48579;DHT22;34357;51.948;6.132;2023-05-16T04:19:41;7.50;88.10
48579;DHT22;34357;51.948;6.132;2023-05-16T04:22:07;7.40;87.80
48579;DHT22;34357;51.948;6.132;2023-05-16T04:24:33;7.40;88.00
48579;DHT22;34357;51.948;6.132;2023-05-16T04:26:58;7.40;88.20
48579;DHT22;34357;51.948;6.132;2023-05-16T04:29:25;7.40;88.20
48579;DHT22;34357;51.948;6.132;2023-05-16T04:31:50;7.50;88.10
48579;DHT22;34357;51.948;6.132;2023-05-16T04:34:16;7.50;87.90
48579;DHT22;34357;51.948;6.132;2023-05-16T04:36:42;7.60;88.00
48579;DHT22;34357;51.948;6.132;2023-05-16T04:39:08;7.70;88.10
48579;DHT22;34357;51.948;6.132;2023-05-16T04:41:33;7.60;87.70
48579;DHT22;34357;51.948;6.132;2023-05-16T04:44:01;7.60;87.80
48579;DHT22;34357;51.948;6.132;2023-05-16T04:46:29;7.60;87.80
48579;DHT22;34357;51.948;6.132;2023-05-16T04:48:54;7.70;87.90
48579;DHT22;34357;51.948;6.132;2023-05-16T04:51:20;7.70;87.70
48579;DHT22;34357;51.948;6.132;2023-05-16T04:53:46;7.70;87.70
48579;DHT22;34357;51.948;6.132;2023-05-16T04:56:12;7.80;87.70
48579;DHT22;34357;51.948;6.132;2023-05-16T04:58:38;7.80;87.80
48579;DHT22;34357;51.948;6.132;2023-05-16T05:01:03;7.90;88.00
48579;DHT22;34357;51.948;6.132;2023-05-16T05:03:29;8.00;87.70
48579;DHT22;34357;51.948;6.132;2023-05-16T05:05:55;8.20;88.00
48579;DHT22;34357;51.948;6.132;2023-05-16T05:08:21;8.40;87.80
48579;DHT22;34357;51.948;6.132;2023-05-16T05:10:46;8.40;87.60
48579;DHT22;34357;51.948;6.132;2023-05-16T05:13:12;8.60;87.20
48579;DHT22;34357;51.948;6.132;2023-05-16T05:15:38;8.70;87.00
48579;DHT22;34357;51.948;6.132;2023-05-16T05:18:04;8.80;87.10
48579;DHT22;34357;51.948;6.132;2023-05-16T05:20:30;8.80;86.80
48579;DHT22;34357;51.948;6.132;2023-05-16T05:22:55;8.90;86.30
48579;DHT22;34357;51.948;6.132;2023-05-16T05:25:21;8.90;86.40
48579;DHT22;34357;51.948;6.132;2023-05-16T05:27:47;8.90;86.40
48579;DHT22;34357;51.948;6.132;2023-05-16T05:30:13;8.90;85.80
48579;DHT22;34357;51.948;6.132;2023-05-16T05:32:38;8.90;85.90
48579;DHT22;34357;51.948;6.132;2023-05-16T05:35:04;8.90;85.80
48579;DHT22;34357;51.948;6.132;2023-05-16T05:37:30;8.90;86.10
48579;DHT22;34357;51.948;6.132;2023-05-16T05:39:56;9.00;86.20
48579;DHT22;34357;51.948;6.132;2023-05-16T05:42:22;9.10;86.20
48579;DHT22;34357;51.948;6.132;2023-05-16T05:44:48;9.00;85.50
48579;DHT22;34357;51.948;6.132;2023-05-16T05:47:14;9.20;85.50
48579;DHT22;34357;51.948;6.132;2023-05-16T05:49:40;9.50;85.00
48579;DHT22;34357;51.948;6.132;2023-05-16T05:52:06;9.80;85.10
48579;DHT22;34357;51.948;6.132;2023-05-16T05:54:32;10.10;84.30
48579;DHT22;34357;51.948;6.132;2023-05-16T05:56:58;10.10;83.10
48579;DHT22;34357;51.948;6.132;2023-05-16T05:59:24;10.20;82.80
48579;DHT22;34357;51.948;6.132;2023-05-16T06:01:59;10.20;83.20
48579;DHT22;34357;51.948;6.132;2023-05-16T06:04:27;10.30;82.40
48579;DHT22;34357;51.948;6.132;2023-05-16T06:06:52;10.30;82.10
48579;DHT22;34357;51.948;6.132;2023-05-16T06:09:19;10.40;81.20
48579;DHT22;34357;51.948;6.132;2023-05-16T06:11:45;10.40;80.70
48579;DHT22;34357;51.948;6.132;2023-05-16T06:14:11;10.60;80.00
48579;DHT22;34357;51.948;6.132;2023-05-16T06:16:37;10.80;80.90
48579;DHT22;34357;51.948;6.132;2023-05-16T06:19:04;11.00;80.40
48579;DHT22;34357;51.948;6.132;2023-05-16T06:21:30;11.00;78.50
48579;DHT22;34357;51.948;6.132;2023-05-16T06:23:56;11.00;78.80
48579;DHT22;34357;51.948;6.132;2023-05-16T06:26:22;11.10;79.30
48579;DHT22;34357;51.948;6.132;2023-05-16T06:28:49;11.10;78.00
48579;DHT22;34357;51.948;6.132;2023-05-16T06:31:14;11.40;77.40
48579;DHT22;34357;51.948;6.132;2023-05-16T06:33:40;11.40;76.20
48579;DHT22;34357;51.948;6.132;2023-05-16T06:36:06;11.30;76.10
48579;DHT22;34357;51.948;6.132;2023-05-16T06:38:32;11.10;76.90
48579;DHT22;34357;51.948;6.132;2023-05-16T06:40:58;11.00;77.70
48579;DHT22;34357;51.948;6.132;2023-05-16T06:43:24;10.90;78.30
48579;DHT22;34357;51.948;6.132;2023-05-16T06:45:49;10.80;78.70
48579;DHT22;34357;51.948;6.132;2023-05-16T06:48:16;10.70;79.60
48579;DHT22;34357;51.948;6.132;2023-05-16T06:50:46;10.80;79.30
48579;DHT22;34357;51.948;6.132;2023-05-16T06:53:12;10.90;79.70
48579;DHT22;34357;51.948;6.132;2023-05-16T06:55:38;10.80;78.50
48579;DHT22;34357;51.948;6.132;2023-05-16T06:58:03;10.90;80.00
48579;DHT22;34357;51.948;6.132;2023-05-16T07:00:29;11.10;79.40
48579;DHT22;34357;51.948;6.132;2023-05-16T07:02:55;11.00;79.40
48579;DHT22;34357;51.948;6.132;2023-05-16T07:05:20;10.90;79.40
48579;DHT22;34357;51.948;6.132;2023-05-16T07:07:46;10.80;79.90
48579;DHT22;34357;51.948;6.132;2023-05-16T07:10:14;10.90;80.00
48579;DHT22;34357;51.948;6.132;2023-05-16T07:12:43;10.90;80.10
48579;DHT22;34357;51.948;6.132;2023-05-16T07:15:09;11.10;79.40
48579;DHT22;34357;51.948;6.132;2023-05-16T07:17:35;11.10;79.10
48579;DHT22;34357;51.948;6.132;2023-05-16T07:20:01;11.40;79.20
48579;DHT22;34357;51.948;6.132;2023-05-16T07:22:27;11.50;78.90
48579;DHT22;34357;51.948;6.132;2023-05-16T07:24:53;12.30;76.40
48579;DHT22;34357;51.948;6.132;2023-05-16T07:27:21;13.10;75.00
48579;DHT22;34357;51.948;6.132;2023-05-16T07:29:47;13.50;73.00
48579;DHT22;34357;51.948;6.132;2023-05-16T07:32:13;13.90;71.70
48579;DHT22;34357;51.948;6.132;2023-05-16T07:34:39;14.30;68.10
48579;DHT22;34357;51.948;6.132;2023-05-16T07:37:05;14.40;67.60
48579;DHT22;34357;51.948;6.132;2023-05-16T07:39:38;14.50;67.10
48579;DHT22;34357;51.948;6.132;2023-05-16T07:42:05;15.00;65.20
48579;DHT22;34357;51.948;6.132;2023-05-16T07:44:30;15.50;66.50
48579;DHT22;34357;51.948;6.132;2023-05-16T07:46:56;15.40;64.60
48579;DHT22;34357;51.948;6.132;2023-05-16T07:49:22;15.40;63.40
48579;DHT22;34357;51.948;6.132;2023-05-16T07:51:48;14.50;64.40
48579;DHT22;34357;51.948;6.132;2023-05-16T07:54:13;13.90;67.10
48579;DHT22;34357;51.948;6.132;2023-05-16T07:56:40;13.60;66.60
48579;DHT22;34357;51.948;6.132;2023-05-16T07:59:06;13.30;67.30
48579;DHT22;34357;51.948;6.132;2023-05-16T08:01:32;13.00;67.90
48579;DHT22;34357;51.948;6.132;2023-05-16T08:03:58;12.90;67.60
48579;DHT22;34357;51.948;6.132;2023-05-16T08:06:23;13.30;69.60
48579;DHT22;34357;51.948;6.132;2023-05-16T08:08:49;14.40;67.50
48579;DHT22;34357;51.948;6.132;2023-05-16T08:11:15;14.40;63.60
48579;DHT22;34357;51.948;6.132;2023-05-16T08:13:41;13.90;63.40
48579;DHT22;34357;51.948;6.132;2023-05-16T08:16:06;13.40;66.60
48579;DHT22;34357;51.948;6.132;2023-05-16T08:18:32;13.00;67.80
48579;DHT22;34357;51.948;6.132;2023-05-16T08:20:58;12.70;69.90
48579;DHT22;34357;51.948;6.132;2023-05-16T08:23:24;12.60;70.90
48579;DHT22;34357;51.948;6.132;2023-05-16T08:25:49;12.30;70.60
48579;DHT22;34357;51.948;6.132;2023-05-16T08:28:15;12.20;70.70
48579;DHT22;34357;51.948;6.132;2023-05-16T08:30:41;12.10;70.50
48579;DHT22;34357;51.948;6.132;2023-05-16T08:33:07;12.90;71.30
48579;DHT22;34357;51.948;6.132;2023-05-16T08:35:34;14.00;68.20
48579;DHT22;34357;51.948;6.132;2023-05-16T08:38:00;14.60;64.80
48579;DHT22;34357;51.948;6.132;2023-05-16T08:40:27;14.00;62.50
48579;DHT22;34357;51.948;6.132;2023-05-16T08:42:53;13.60;64.90
48579;DHT22;34357;51.948;6.132;2023-05-16T08:45:20;13.10;65.80
48579;DHT22;34357;51.948;6.132;2023-05-16T08:47:49;12.80;67.40
48579;DHT22;34357;51.948;6.132;2023-05-16T08:50:16;12.80;70.20
48579;DHT22;34357;51.948;6.132;2023-05-16T08:52:43;13.70;69.80
48579;DHT22;34357;51.948;6.132;2023-05-16T08:55:10;14.00;68.80
48579;DHT22;34357;51.948;6.132;2023-05-16T08:57:36;14.60;67.80
48579;DHT22;34357;51.948;6.132;2023-05-16T09:00:03;15.10;66.30
48579;DHT22;34357;51.948;6.132;2023-05-16T09:02:32;15.60;64.00
48579;DHT22;34357;51.948;6.132;2023-05-16T09:04:58;16.20;61.50
48579;DHT22;34357;51.948;6.132;2023-05-16T09:07:24;16.40;60.70
48579;DHT22;34357;51.948;6.132;2023-05-16T09:09:50;16.70;58.40
48579;DHT22;34357;51.948;6.132;2023-05-16T09:12:16;17.00;59.90
48579;DHT22;34357;51.948;6.132;2023-05-16T09:14:41;17.60;57.60
48579;DHT22;34357;51.948;6.132;2023-05-16T09:17:08;17.40;55.80
48579;DHT22;34357;51.948;6.132;2023-05-16T09:19:42;16.60;55.50
48579;DHT22;34357;51.948;6.132;2023-05-16T09:22:12;16.30;56.60
48579;DHT22;34357;51.948;6.132;2023-05-16T09:24:41;15.90;54.20
48579;DHT22;34357;51.948;6.132;2023-05-16T09:27:12;16.40;53.60
48579;DHT22;34357;51.948;6.132;2023-05-16T09:29:42;16.90;53.20
48579;DHT22;34357;51.948;6.132;2023-05-16T09:32:13;16.30;50.80
48579;DHT22;34357;51.948;6.132;2023-05-16T09:34:49;15.80;55.10
48579;DHT22;34357;51.948;6.132;2023-05-16T09:37:19;15.40;53.30
48579;DHT22;34357;51.948;6.132;2023-05-16T09:39:49;14.40;58.00
48579;DHT22;34357;51.948;6.132;2023-05-16T09:42:16;13.80;60.70
48579;DHT22;34357;51.948;6.132;2023-05-16T09:44:53;13.30;63.40
48579;DHT22;34357;51.948;6.132;2023-05-16T09:47:20;12.90;65.60
48579;DHT22;34357;51.948;6.132;2023-05-16T09:49:51;12.80;66.60
48579;DHT22;34357;51.948;6.132;2023-05-16T09:52:17;12.70;67.90
48579;DHT22;34357;51.948;6.132;2023-05-16T09:54:45;12.70;68.50
48579;DHT22;34357;51.948;6.132;2023-05-16T09:57:20;12.60;67.00
48579;DHT22;34357;51.948;6.132;2023-05-16T09:59:46;12.70;66.40
48579;DHT22;34357;51.948;6.132;2023-05-16T10:02:13;13.40;65.80
48579;DHT22;34357;51.948;6.132;2023-05-16T10:04:39;14.40;63.90
48579;DHT22;34357;51.948;6.132;2023-05-16T10:07:05;15.20;61.80
48579;DHT22;34357;51.948;6.132;2023-05-16T10:09:35;15.70;59.00
48579;DHT22;34357;51.948;6.132;2023-05-16T10:12:02;16.10;55.30
48579;DHT22;34357;51.948;6.132;2023-05-16T10:14:33;16.00;54.40
48579;DHT22;34357;51.948;6.132;2023-05-16T10:16:59;15.40;55.40
48579;DHT22;34357;51.948;6.132;2023-05-16T10:19:27;14.80;58.80
48579;DHT22;34357;51.948;6.132;2023-05-16T10:21:57;14.20;58.90
48579;DHT22;34357;51.948;6.132;2023-05-16T10:24:28;13.90;55.10
48579;DHT22;34357;51.948;6.132;2023-05-16T10:26:56;13.70;53.70
48579;DHT22;34357;51.948;6.132;2023-05-16T10:29:22;13.60;57.30
48579;DHT22;34357;51.948;6.132;2023-05-16T10:31:49;13.70;57.70
48579;DHT22;34357;51.948;6.132;2023-05-16T10:34:15;14.10;58.20
48579;DHT22;34357;51.948;6.132;2023-05-16T10:36:43;14.90;57.30
48579;DHT22;34357;51.948;6.132;2023-05-16T10:39:10;15.30;55.20
48579;DHT22;34357;51.948;6.132;2023-05-16T10:41:36;15.60;54.10
48579;DHT22;34357;51.948;6.132;2023-05-16T10:44:02;15.70;52.80
48579;DHT22;34357;51.948;6.132;2023-05-16T10:46:30;15.90;52.10
48579;DHT22;34357;51.948;6.132;2023-05-16T10:48:56;16.30;52.90
48579;DHT22;34357;51.948;6.132;2023-05-16T10:53:52;16.70;52.50
48579;DHT22;34357;51.948;6.132;2023-05-16T10:56:25;17.00;50.60
48579;DHT22;34357;51.948;6.132;2023-05-16T10:58:53;17.00;51.70
48579;DHT22;34357;51.948;6.132;2023-05-16T11:01:34;17.20;50.70
48579;DHT22;34357;51.948;6.132;2023-05-16T11:04:07;16.60;49.50
48579;DHT22;34357;51.948;6.132;2023-05-16T11:06:48;16.20;49.80
48579;DHT22;34357;51.948;6.132;2023-05-16T11:09:19;16.00;53.50
48579;DHT22;34357;51.948;6.132;2023-05-16T11:12:00;15.70;52.70
48579;DHT22;34357;51.948;6.132;2023-05-16T11:17:22;15.90;51.80
48579;DHT22;34357;51.948;6.132;2023-05-16T11:19:52;15.40;54.10
48579;DHT22;34357;51.948;6.132;2023-05-16T11:24:52;15.70;54.60
48579;DHT22;34357;51.948;6.132;2023-05-16T11:27:26;16.40;53.30
48579;DHT22;34357;51.948;6.132;2023-05-16T11:29:54;16.60;49.50
48579;DHT22;34357;51.948;6.132;2023-05-16T11:32:21;16.20;48.90
48579;DHT22;34357;51.948;6.132;2023-05-16T11:34:48;15.80;48.90
48579;DHT22;34357;51.948;6.132;2023-05-16T11:37:15;15.50;49.90
48579;DHT22;34357;51.948;6.132;2023-05-16T11:39:41;15.50;52.20
48579;DHT22;34357;51.948;6.132;2023-05-16T11:42:08;15.30;52.00
48579;DHT22;34357;51.948;6.132;2023-05-16T11:44:34;15.80;51.90
48579;DHT22;34357;51.948;6.132;2023-05-16T11:47:00;16.00;51.60
48579;DHT22;34357;51.948;6.132;2023-05-16T11:49:27;15.90;50.30
48579;DHT22;34357;51.948;6.132;2023-05-16T11:51:53;15.90;49.40
48579;DHT22;34357;51.948;6.132;2023-05-16T11:54:21;16.20;49.20
48579;DHT22;34357;51.948;6.132;2023-05-16T11:56:48;16.00;47.70
48579;DHT22;34357;51.948;6.132;2023-05-16T11:59:14;15.90;48.60
48579;DHT22;34357;51.948;6.132;2023-05-16T12:01:40;15.80;48.10
48579;DHT22;34357;51.948;6.132;2023-05-16T12:04:14;15.60;48.20
48579;DHT22;34357;51.948;6.132;2023-05-16T12:06:41;16.00;49.00
48579;DHT22;34357;51.948;6.132;2023-05-16T12:09:13;16.30;45.10
48579;DHT22;34357;51.948;6.132;2023-05-16T12:11:41;16.10;45.80
48579;DHT22;34357;51.948;6.132;2023-05-16T12:14:08;16.20;46.30
48579;DHT22;34357;51.948;6.132;2023-05-16T12:16:35;16.40;45.00
48579;DHT22;34357;51.948;6.132;2023-05-16T12:19:04;16.10;47.70
48579;DHT22;34357;51.948;6.132;2023-05-16T12:21:33;15.90;48.70
48579;DHT22;34357;51.948;6.132;2023-05-16T12:23:59;15.80;47.40
48579;DHT22;34357;51.948;6.132;2023-05-16T12:26:29;15.50;47.50
48579;DHT22;34357;51.948;6.132;2023-05-16T12:28:59;15.70;48.50
48579;DHT22;34357;51.948;6.132;2023-05-16T12:31:28;15.60;48.00
48579;DHT22;34357;51.948;6.132;2023-05-16T12:33:55;15.80;47.20
48579;DHT22;34357;51.948;6.132;2023-05-16T12:36:22;16.00;48.60
48579;DHT22;34357;51.948;6.132;2023-05-16T12:38:49;16.30;46.70
48579;DHT22;34357;51.948;6.132;2023-05-16T12:41:20;16.50;46.30
48579;DHT22;34357;51.948;6.132;2023-05-16T12:43:47;16.90;45.80
48579;DHT22;34357;51.948;6.132;2023-05-16T12:46:13;16.90;43.20
48579;DHT22;34357;51.948;6.132;2023-05-16T12:48:39;16.50;44.30
48579;DHT22;34357;51.948;6.132;2023-05-16T12:51:17;16.30;46.10
48579;DHT22;34357;51.948;6.132;2023-05-16T12:53:44;16.10;46.40
48579;DHT22;34357;51.948;6.132;2023-05-16T12:56:11;15.90;45.90
48579;DHT22;34357;51.948;6.132;2023-05-16T12:58:38;15.90;43.60
48579;DHT22;34357;51.948;6.132;2023-05-16T13:01:04;16.20;46.80
48579;DHT22;34357;51.948;6.132;2023-05-16T13:03:31;16.40;48.50
48579;DHT22;34357;51.948;6.132;2023-05-16T13:05:57;16.00;49.30
48579;DHT22;34357;51.948;6.132;2023-05-16T13:08:27;16.00;50.10
48579;DHT22;34357;51.948;6.132;2023-05-16T13:10:53;15.90;50.80
48579;DHT22;34357;51.948;6.132;2023-05-16T13:13:19;16.30;50.30
48579;DHT22;34357;51.948;6.132;2023-05-16T13:15:45;16.10;49.50
48579;DHT22;34357;51.948;6.132;2023-05-16T13:18:13;16.00;51.20
48579;DHT22;34357;51.948;6.132;2023-05-16T13:20:39;16.30;50.60
48579;DHT22;34357;51.948;6.132;2023-05-16T13:23:05;16.20;50.50
48579;DHT22;34357;51.948;6.132;2023-05-16T13:25:32;16.50;48.20
48579;DHT22;34357;51.948;6.132;2023-05-16T13:27:57;16.60;51.00
48579;DHT22;34357;51.948;6.132;2023-05-16T13:30:23;16.60;51.80
48579;DHT22;34357;51.948;6.132;2023-05-16T13:32:49;16.40;51.70
48579;DHT22;34357;51.948;6.132;2023-05-16T13:35:17;15.90;52.10
48579;DHT22;34357;51.948;6.132;2023-05-16T13:37:42;15.60;54.30
48579;DHT22;34357;51.948;6.132;2023-05-16T13:40:08;15.30;54.70
48579;DHT22;34357;51.948;6.132;2023-05-16T13:42:35;15.40;55.30
48579;DHT22;34357;51.948;6.132;2023-05-16T13:45:05;15.10;55.10
48579;DHT22;34357;51.948;6.132;2023-05-16T13:47:31;15.00;55.70
48579;DHT22;34357;51.948;6.132;2023-05-16T13:50:01;14.80;56.60
48579;DHT22;34357;51.948;6.132;2023-05-16T13:52:33;14.60;57.40
48579;DHT22;34357;51.948;6.132;2023-05-16T13:54:59;14.70;57.10
48579;DHT22;34357;51.948;6.132;2023-05-16T13:57:25;14.20;58.20
48579;DHT22;34357;51.948;6.132;2023-05-16T13:59:52;14.00;58.30
48579;DHT22;34357;51.948;6.132;2023-05-16T14:02:18;14.10;59.40
48579;DHT22;34357;51.948;6.132;2023-05-16T14:04:44;14.20;59.40
48579;DHT22;34357;51.948;6.132;2023-05-16T14:07:10;14.40;59.70
48579;DHT22;34357;51.948;6.132;2023-05-16T14:09:36;14.50;60.10
48579;DHT22;34357;51.948;6.132;2023-05-16T14:12:06;14.80;58.20
48579;DHT22;34357;51.948;6.132;2023-05-16T14:14:33;15.10;57.30
48579;DHT22;34357;51.948;6.132;2023-05-16T14:16:59;15.60;56.00
48579;DHT22;34357;51.948;6.132;2023-05-16T14:19:25;15.70;53.00
48579;DHT22;34357;51.948;6.132;2023-05-16T14:21:50;15.50;54.50
48579;DHT22;34357;51.948;6.132;2023-05-16T14:24:16;15.40;54.50
48579;DHT22;34357;51.948;6.132;2023-05-16T14:26:42;15.00;56.00
48579;DHT22;34357;51.948;6.132;2023-05-16T14:29:08;14.60;56.80
48579;DHT22;34357;51.948;6.132;2023-05-16T14:31:33;14.40;58.00
48579;DHT22;34357;51.948;6.132;2023-05-16T14:34:01;14.40;59.40
48579;DHT22;34357;51.948;6.132;2023-05-16T14:36:27;14.60;58.50
48579;DHT22;34357;51.948;6.132;2023-05-16T14:38:52;14.80;58.30
48579;DHT22;34357;51.948;6.132;2023-05-16T14:41:18;14.90;57.60
48579;DHT22;34357;51.948;6.132;2023-05-16T14:43:44;14.80;58.80
48579;DHT22;34357;51.948;6.132;2023-05-16T14:46:10;14.70;58.20
48579;DHT22;34357;51.948;6.132;2023-05-16T14:48:35;14.50;59.80
48579;DHT22;34357;51.948;6.132;2023-05-16T14:51:01;14.60;59.00
48579;DHT22;34357;51.948;6.132;2023-05-16T14:53:29;14.40;59.60
48579;DHT22;34357;51.948;6.132;2023-05-16T14:55:55;14.40;60.00
48579;DHT22;34357;51.948;6.132;2023-05-16T14:58:22;14.30;61.50
48579;DHT22;34357;51.948;6.132;2023-05-16T15:00:48;14.30;61.50
48579;DHT22;34357;51.948;6.132;2023-05-16T15:03:16;14.50;62.00
48579;DHT22;34357;51.948;6.132;2023-05-16T15:05:43;14.40;62.70
48579;DHT22;34357;51.948;6.132;2023-05-16T15:08:09;14.60;61.30
48579;DHT22;34357;51.948;6.132;2023-05-16T15:10:34;14.70;60.20
48579;DHT22;34357;51.948;6.132;2023-05-16T15:13:00;14.60;59.60
48579;DHT22;34357;51.948;6.132;2023-05-16T15:15:26;14.60;59.40
48579;DHT22;34357;51.948;6.132;2023-05-16T15:17:53;14.70;59.90
48579;DHT22;34357;51.948;6.132;2023-05-16T15:20:19;14.70;59.70
48579;DHT22;34357;51.948;6.132;2023-05-16T15:22:46;14.50;59.70
48579;DHT22;34357;51.948;6.132;2023-05-16T15:25:11;14.50;58.10
48579;DHT22;34357;51.948;6.132;2023-05-16T15:27:37;14.40;59.80
48579;DHT22;34357;51.948;6.132;2023-05-16T15:30:03;14.50;60.20
48579;DHT22;34357;51.948;6.132;2023-05-16T15:32:29;14.50;60.00
48579;DHT22;34357;51.948;6.132;2023-05-16T15:34:55;14.40;60.50
48579;DHT22;34357;51.948;6.132;2023-05-16T15:37:20;14.10;60.40
48579;DHT22;34357;51.948;6.132;2023-05-16T15:39:46;14.20;61.30
48579;DHT22;34357;51.948;6.132;2023-05-16T15:42:12;14.20;60.90
48579;DHT22;34357;51.948;6.132;2023-05-16T15:44:39;13.90;59.90
48579;DHT22;34357;51.948;6.132;2023-05-16T15:47:05;13.90;60.50
48579;DHT22;34357;51.948;6.132;2023-05-16T15:49:30;13.80;60.60